createdAt,value
2023-02-11T00:00:39.919Z,103136.44
2023-02-11T00:03:09.901Z,103129.25
2023-02-11T00:05:49.037Z,103131.06
2023-02-11T00:08:23.860Z,103132.28
2023-02-11T00:11:11.300Z,103131.34
2023-02-11T00:14:07.288Z,103127.31
2023-02-11T00:16:53.987Z,103139.63
2023-02-11T00:19:26.961Z,103132.75
2023-02-11T00:21:57.227Z,103130.16
2023-02-11T00:24:30.102Z,103134.44
2023-02-11T00:27:04.646Z,103128.56
2023-02-11T00:29:41.724Z,103140.75
2023-02-11T00:32:11.516Z,103130.41
2023-02-11T00:34:47.713Z,103132.59
2023-02-11T00:37:26.749Z,103130.28
2023-02-11T00:39:56.655Z,103132.28
2023-02-11T00:42:25.629Z,103130.81
2023-02-11T00:44:53.182Z,103132.22
2023-02-11T00:47:19.840Z,103136.88
2023-02-11T00:49:46.503Z,103135.44
2023-02-11T00:52:27.905Z,103131.31
2023-02-11T00:54:54.525Z,103135.44
2023-02-11T00:57:22.910Z,103136.81
2023-02-11T00:59:49.670Z,103136.41
2023-02-11T01:02:24.334Z,103138.56
2023-02-11T01:04:56.735Z,103144.00
2023-02-11T01:07:33.705Z,103141.72
2023-02-11T01:10:26.862Z,103145.84
2023-02-11T01:12:53.478Z,103141.50
2023-02-11T01:15:20.431Z,103139.84
2023-02-11T01:17:50.070Z,103140.69
2023-02-11T01:20:20.384Z,103147.94
2023-02-11T01:22:46.998Z,103141.25
2023-02-11T01:25:26.957Z,103139.97
2023-02-11T01:27:53.661Z,103140.50
2023-02-11T01:30:20.256Z,103142.00
2023-02-11T01:33:06.499Z,103132.63
2023-02-11T01:35:38.756Z,103126.28
2023-02-11T01:38:07.186Z,103128.34
2023-02-11T01:40:34.215Z,103129.31
2023-02-11T01:43:11.116Z,103122.56
2023-02-11T01:45:51.460Z,103119.34
2023-02-11T01:48:25.877Z,103115.66
2023-02-11T01:50:59.545Z,103106.56
2023-02-11T01:53:26.608Z,103108.38
2023-02-11T01:55:54.200Z,103101.44
2023-02-11T01:58:21.214Z,103100.88
2023-02-11T02:00:48.307Z,103103.66
2023-02-11T02:03:22.570Z,103092.97
2023-02-11T02:06:00.586Z,103095.78
2023-02-11T02:08:38.134Z,103091.22
2023-02-11T02:11:05.647Z,103084.41
2023-02-11T02:13:37.129Z,103086.03
2023-02-11T02:16:10.188Z,103086.53
2023-02-11T02:19:03.949Z,103074.72
2023-02-11T02:21:31.007Z,103077.22
2023-02-11T02:24:37.401Z,103080.56
2023-02-11T02:27:50.737Z,103077.97
2023-02-11T02:30:49.130Z,103069.94
2023-02-11T02:33:30.077Z,103069.41
2023-02-11T02:36:25.883Z,103062.56
2023-02-11T02:39:13.634Z,103046.69
2023-02-11T02:41:50.480Z,103046.75
2023-02-11T02:44:31.318Z,103045.34
2023-02-11T02:46:58.404Z,103047.00
2023-02-11T02:49:25.361Z,103044.88
2023-02-11T02:52:30.998Z,103046.63
2023-02-11T02:55:23.080Z,103051.16
2023-02-11T02:58:10.418Z,103062.75
2023-02-11T03:01:01.805Z,103057.19
2023-02-11T03:03:43.505Z,103060.22
2023-02-11T03:06:36.406Z,103050.78
2023-02-11T03:09:14.642Z,103045.75
2023-02-11T03:11:41.461Z,103043.53
2023-02-11T03:14:24.619Z,103049.97
2023-02-11T03:16:57.768Z,103046.59
2023-02-11T03:19:35.292Z,103039.94
2023-02-11T03:22:07.796Z,103044.19
2023-02-11T03:24:52.041Z,103037.38
2023-02-11T03:27:31.821Z,103032.72
2023-02-11T03:30:13.659Z,103030.75
2023-02-11T03:33:05.030Z,103035.28
2023-02-11T03:36:04.852Z,103031.75
2023-02-11T03:38:36.527Z,103033.00
2023-02-11T03:41:08.057Z,103034.94
2023-02-11T03:44:01.736Z,103028.91
2023-02-11T03:46:40.702Z,103020.03
2023-02-11T03:49:20.787Z,103023.41
2023-02-11T03:51:53.024Z,103024.16
2023-02-11T03:54:27.147Z,103018.75
2023-02-11T03:56:58.081Z,103018.81
2023-02-11T03:59:30.167Z,103021.47
2023-02-11T04:02:00.199Z,103016.41
2023-02-11T04:04:35.688Z,103013.75
2023-02-11T04:07:02.340Z,103013.25
2023-02-11T04:09:28.949Z,103018.28
2023-02-11T04:12:04.162Z,103014.16
2023-02-11T04:14:32.995Z,103022.59
2023-02-11T04:16:59.646Z,103014.56
2023-02-11T04:19:26.520Z,103015.31
2023-02-11T04:21:53.198Z,103009.31
2023-02-11T04:24:28.608Z,103007.53
2023-02-11T04:26:59.246Z,103007.03
2023-02-11T04:29:28.821Z,103015.00
2023-02-11T04:31:58.456Z,103000.03
2023-02-11T04:34:27.734Z,103003.94
2023-02-11T04:36:57.633Z,103001.88
2023-02-11T04:39:24.327Z,103006.03
2023-02-11T04:41:56.949Z,103003.63
2023-02-11T04:44:33.209Z,103000.13
2023-02-11T04:47:04.005Z,103002.06
2023-02-11T04:49:39.890Z,102997.06
2023-02-11T04:52:12.764Z,102994.03
2023-02-11T04:54:43.571Z,102994.59
2023-02-11T04:57:10.189Z,102996.53
2023-02-11T04:59:36.945Z,102986.25
2023-02-11T05:02:05.407Z,102986.44
2023-02-11T05:04:32.197Z,102979.50
2023-02-11T05:07:06.964Z,102988.72
2023-02-11T05:09:34.484Z,102987.78
2023-02-11T05:12:01.206Z,102994.59
2023-02-11T05:14:32.374Z,102994.22
2023-02-11T05:17:10.428Z,102990.25
2023-02-11T05:19:39.335Z,102989.94
2023-02-11T05:22:06.031Z,102992.84
2023-02-11T05:24:38.944Z,102991.34
2023-02-11T05:27:05.607Z,102991.38
2023-02-11T05:29:39.724Z,102994.78
2023-02-11T05:32:06.412Z,102991.97
2023-02-11T05:34:36.261Z,102989.53
2023-02-11T05:37:06.133Z,102991.84
2023-02-11T05:39:32.740Z,102995.19
2023-02-11T05:41:59.369Z,102988.22
2023-02-11T05:44:27.284Z,102990.31
2023-02-11T05:46:53.922Z,103001.00
2023-02-11T05:49:20.538Z,102993.66
2023-02-11T05:51:47.473Z,103003.81
2023-02-11T05:54:16.178Z,103010.19
2023-02-11T05:56:44.790Z,103002.03
2023-02-11T05:59:15.516Z,103008.13
2023-02-11T06:01:42.134Z,102996.47
2023-02-11T06:04:09.121Z,102994.06
2023-02-11T06:06:35.797Z,103001.94
2023-02-11T06:09:02.673Z,102992.06
2023-02-11T06:11:31.904Z,102995.25
2023-02-11T06:13:58.469Z,102999.78
2023-02-11T06:16:31.604Z,102999.88
2023-02-11T06:19:02.497Z,102998.41
2023-02-11T06:21:42.723Z,102998.97
2023-02-11T06:24:44.325Z,102997.25
2023-02-11T06:27:07.534Z,102997.88
2023-02-11T06:29:34.175Z,102995.25
2023-02-11T06:32:04.580Z,102988.91
2023-02-11T06:34:34.162Z,102994.56
2023-02-11T06:37:07.280Z,102989.72
2023-02-11T06:39:39.185Z,102985.25
2023-02-11T06:42:08.679Z,102987.69
2023-02-11T06:44:35.325Z,102985.41
2023-02-11T06:47:12.099Z,102990.94
2023-02-11T06:49:38.698Z,102990.53
2023-02-11T06:52:05.370Z,102991.91
2023-02-11T06:54:34.296Z,102993.53
2023-02-11T06:57:01.050Z,102993.38
2023-02-11T06:59:33.152Z,102986.13
2023-02-11T07:02:01.407Z,102990.41
2023-02-11T07:04:28.125Z,102993.75
2023-02-11T07:06:57.972Z,102992.28
2023-02-11T07:09:24.719Z,102992.53
2023-02-11T07:11:57.100Z,102997.72
2023-02-11T07:14:23.850Z,102998.94
2023-02-11T07:16:57.863Z,102994.22
2023-02-11T07:19:24.594Z,102992.81
2023-02-11T07:21:51.264Z,103003.66
2023-02-11T07:24:20.190Z,103011.78
2023-02-11T07:26:47.860Z,103009.41
2023-02-11T07:29:18.396Z,103013.38
2023-02-11T07:31:45.401Z,103006.47
2023-02-11T07:34:12.111Z,103010.53
2023-02-11T07:36:38.720Z,103015.22
2023-02-11T07:39:05.407Z,103000.97
2023-02-11T07:41:44.953Z,102997.97
2023-02-11T07:44:17.905Z,103005.56
2023-02-11T07:46:49.020Z,102998.94
2023-02-11T07:49:25.065Z,103001.47
2023-02-11T07:51:55.379Z,103002.81
2023-02-11T07:54:22.091Z,102995.91
2023-02-11T07:56:54.448Z,103003.44
2023-02-11T07:59:21.294Z,102999.50
2023-02-11T08:01:48.164Z,102999.78
2023-02-11T08:04:14.889Z,103002.28
2023-02-11T08:06:42.883Z,103013.91
2023-02-11T08:09:23.926Z,103013.09
2023-02-11T08:11:50.624Z,103013.63
2023-02-11T08:14:24.823Z,103023.91
2023-02-11T08:19:35.336Z,103030.81
2023-02-11T08:22:02.125Z,103026.25
2023-02-11T08:24:30.046Z,103031.28
2023-02-11T08:26:56.715Z,103039.78
2023-02-11T08:29:23.491Z,103035.81
2023-02-11T08:31:50.330Z,103032.50
2023-02-11T08:34:17.670Z,103040.28
2023-02-11T08:36:49.398Z,103046.72
2023-02-11T08:39:22.524Z,103047.00
2023-02-11T08:41:57.010Z,103042.66
2023-02-11T08:44:25.086Z,103053.00
2023-02-11T08:52:28.108Z,103050.53
2023-02-11T08:54:58.293Z,103060.22
2023-02-11T08:57:34.922Z,103058.81
2023-02-11T09:00:13.869Z,103053.22
2023-02-11T09:02:47.076Z,103050.34
2023-02-11T09:05:14.288Z,103048.31
2023-02-11T09:07:50.171Z,103048.72
2023-02-11T09:10:16.959Z,103048.81
2023-02-11T09:12:46.600Z,103045.81
2023-02-11T09:15:23.383Z,103048.72
2023-02-11T09:17:50.057Z,103043.56
2023-02-11T09:20:18.701Z,103046.78
2023-02-11T09:22:48.658Z,103041.34
2023-02-11T09:25:22.943Z,103040.06
2023-02-11T09:27:58.243Z,103040.78
2023-02-11T09:30:27.763Z,103041.19
2023-02-11T09:33:22.074Z,103036.78
2023-02-11T09:35:51.598Z,103038.88
2023-02-11T09:38:23.167Z,103041.38
2023-02-11T09:40:50.154Z,103038.59
2023-02-11T09:43:35.875Z,103042.56
2023-02-11T09:48:45.730Z,103051.72
2023-02-11T09:51:35.193Z,103035.28
2023-02-11T09:54:23.925Z,103034.91
2023-02-11T09:56:53.031Z,103039.69
2023-02-11T09:59:24.975Z,103027.34
2023-02-11T10:01:59.113Z,103031.16
2023-02-11T10:04:47.638Z,103025.44
2023-02-11T10:07:41.936Z,103027.25
2023-02-11T10:10:27.514Z,103022.19
2023-02-11T10:12:56.716Z,103020.69
2023-02-11T10:15:55.502Z,103010.97
2023-02-11T10:18:42.351Z,103013.94
2023-02-11T10:21:27.294Z,103018.16
2023-02-11T10:23:59.285Z,103010.97
2023-02-11T10:26:30.192Z,103005.47
2023-02-11T10:29:02.003Z,103004.25
2023-02-11T10:31:41.481Z,103004.31
2023-02-11T10:34:13.199Z,103002.47
2023-02-11T10:36:47.366Z,102991.94
2023-02-11T10:39:26.144Z,102998.59
2023-02-11T10:41:58.704Z,103005.69
2023-02-11T10:44:37.671Z,102998.28
2023-02-11T10:47:27.916Z,102991.66
2023-02-11T10:50:00.949Z,102978.22
2023-02-11T10:52:43.680Z,102977.59
2023-02-11T10:55:14.340Z,102980.91
2023-02-11T10:57:55.662Z,102979.88
2023-02-11T11:00:38.904Z,102981.25
2023-02-11T11:03:21.315Z,102985.78
2023-02-11T11:06:15.916Z,102972.97
2023-02-11T11:08:52.642Z,102976.44
2023-02-11T11:11:35.620Z,102963.56
2023-02-11T11:14:02.543Z,102955.16
2023-02-11T11:16:30.827Z,102957.19
2023-02-11T11:19:09.340Z,102947.19
2023-02-11T11:21:53.903Z,102942.25
2023-02-11T11:24:22.297Z,102944.13
2023-02-11T11:26:52.402Z,102943.34
2023-02-11T11:29:42.665Z,102945.50
2023-02-11T11:32:15.014Z,102942.44
2023-02-11T11:34:43.905Z,102947.94
2023-02-11T11:37:20.709Z,102943.81
2023-02-11T11:40:19.338Z,102932.06
2023-02-11T11:42:46.066Z,102933.50
2023-02-11T11:45:15.782Z,102924.63
2023-02-11T11:48:13.434Z,102923.97
2023-02-11T11:50:44.281Z,102920.41
2023-02-11T11:53:21.250Z,102919.03
2023-02-11T11:56:03.584Z,102918.41
2023-02-11T11:58:33.046Z,102920.31
2023-02-11T12:01:25.135Z,102913.91
2023-02-11T12:04:30.345Z,102912.22
2023-02-11T12:07:40.195Z,102900.41
2023-02-11T12:10:40.120Z,102896.03
2023-02-11T12:13:29.945Z,102895.41
2023-02-11T12:16:31.941Z,102885.25
2023-02-11T12:19:26.907Z,102878.97
2023-02-11T12:22:10.541Z,102882.06
2023-02-11T12:24:37.116Z,102878.09
2023-02-11T12:27:27.089Z,102874.28
2023-02-11T12:30:15.109Z,102873.13
2023-02-11T12:32:50.754Z,102862.22
2023-02-11T12:35:26.815Z,102850.72
2023-02-11T12:38:05.312Z,102845.44
2023-02-11T12:41:02.130Z,102844.47
2023-02-11T12:43:40.497Z,102843.63
2023-02-11T12:46:47.065Z,102840.66
2023-02-11T12:49:31.365Z,102839.31
2023-02-11T12:52:18.960Z,102830.09
2023-02-11T12:55:04.407Z,102825.72
2023-02-11T12:57:40.625Z,102823.72
2023-02-11T13:00:13.749Z,102826.06
2023-02-11T13:02:48.606Z,102828.41
2023-02-11T13:05:40.379Z,102826.28
2023-02-11T13:08:35.560Z,102819.78
2023-02-11T13:11:14.476Z,102806.09
2023-02-11T13:14:09.365Z,102807.09
2023-02-11T13:16:44.435Z,102800.50
2023-02-11T13:19:14.233Z,102792.47
2023-02-11T13:22:29.533Z,102791.97
2023-02-11T13:25:06.836Z,102795.38
2023-02-11T13:28:06.217Z,102789.94
2023-02-11T13:30:45.567Z,102783.66
2023-02-11T13:33:32.266Z,102785.13
2023-02-11T13:36:04.352Z,102782.34
2023-02-11T13:38:38.438Z,102776.09
2023-02-11T13:41:29.988Z,102774.44
2023-02-11T13:44:02.475Z,102774.69
2023-02-11T13:46:47.923Z,102779.91
2023-02-11T13:49:29.773Z,102775.22
2023-02-11T13:51:57.321Z,102775.84
2023-02-11T13:54:29.371Z,102768.53
2023-02-11T13:57:21.191Z,102765.22
2023-02-11T13:59:49.395Z,102762.34
2023-02-11T14:02:47.659Z,102763.88
2023-02-11T14:05:20.486Z,102758.34
2023-02-11T14:08:12.205Z,102766.97
2023-02-11T14:10:45.717Z,102760.25
2023-02-11T14:13:32.570Z,102757.97
2023-02-11T14:16:17.087Z,102762.34
2023-02-11T14:18:58.182Z,102759.28
2023-02-11T14:21:28.056Z,102760.88
2023-02-11T14:24:22.184Z,102763.91
2023-02-11T14:27:04.580Z,102764.22
2023-02-11T14:29:41.034Z,102768.91
2023-02-11T14:32:45.472Z,102761.16
2023-02-11T14:35:41.234Z,102756.03
2023-02-11T14:38:32.579Z,102753.75
2023-02-11T14:41:31.657Z,102754.13
2023-02-11T14:44:19.472Z,102758.66
2023-02-11T14:47:02.715Z,102755.47
2023-02-11T14:49:35.772Z,102748.66
2023-02-11T14:55:09.358Z,102742.97
2023-02-11T14:57:43.183Z,102740.13
2023-02-11T15:00:23.452Z,102730.50
2023-02-11T15:02:50.224Z,102737.88
2023-02-11T15:05:23.693Z,102746.50
2023-02-11T15:10:44.818Z,102741.88
2023-02-11T15:13:30.773Z,102734.84
2023-02-11T15:16:09.459Z,102738.34
2023-02-11T15:19:04.875Z,102734.25
2023-02-11T15:21:37.221Z,102733.94
2023-02-11T15:24:30.969Z,102728.00
2023-02-11T15:27:24.051Z,102726.22
2023-02-11T15:29:56.191Z,102720.56
2023-02-11T15:32:29.007Z,102716.25
2023-02-11T15:35:00.702Z,102730.91
2023-02-11T15:37:30.706Z,102725.53
2023-02-11T15:40:16.184Z,102734.63
2023-02-11T15:43:00.569Z,102723.09
2023-02-11T15:46:06.189Z,102714.03
2023-02-11T15:48:58.974Z,102721.03
2023-02-11T15:51:36.622Z,102723.00
2023-02-11T15:54:23.927Z,102726.81
2023-02-11T15:57:04.342Z,102718.88
2023-02-11T15:59:45.785Z,102717.47
2023-02-11T16:02:39.583Z,102714.31
2023-02-11T16:05:32.265Z,102714.81
2023-02-11T16:08:23.053Z,102710.56
2023-02-11T16:11:03.933Z,102712.84
2023-02-11T16:13:45.112Z,102709.91
2023-02-11T16:16:27.959Z,102712.28
2023-02-11T16:19:05.986Z,102702.44
2023-02-11T16:21:41.685Z,102708.13
2023-02-11T16:24:16.162Z,102712.00
2023-02-11T16:26:55.856Z,102715.75
2023-02-11T16:29:31.709Z,102712.53
2023-02-11T16:32:32.338Z,102711.19
2023-02-11T16:35:14.988Z,102704.25
2023-02-11T16:37:41.670Z,102703.41
2023-02-11T16:40:09.725Z,102707.59
2023-02-11T16:42:36.450Z,102708.53
2023-02-11T16:45:03.532Z,102708.31
2023-02-11T16:47:37.805Z,102697.50
2023-02-11T16:50:09.763Z,102698.03
2023-02-11T16:52:40.346Z,102698.41
2023-02-11T16:55:07.151Z,102695.44
2023-02-11T16:57:36.680Z,102700.16
2023-02-11T17:00:06.936Z,102695.31
2023-02-11T17:02:38.608Z,102697.41
2023-02-11T17:05:08.779Z,102701.56
2023-02-11T17:07:35.472Z,102697.44
2023-02-11T17:12:33.760Z,102692.16
2023-02-11T17:15:08.216Z,102699.09
2023-02-11T17:17:41.538Z,102693.28
2023-02-11T17:20:11.039Z,102698.72
2023-02-11T17:22:40.126Z,102693.59
2023-02-11T17:25:07.352Z,102692.97
2023-02-11T17:27:34.094Z,102699.66
2023-02-11T17:30:08.311Z,102700.06
2023-02-11T17:32:37.866Z,102698.19
2023-02-11T17:35:05.554Z,102703.59
2023-02-11T17:37:38.384Z,102705.78
2023-02-11T17:40:05.941Z,102710.31
2023-02-11T17:42:34.999Z,102704.16
2023-02-11T17:45:01.619Z,102705.47
2023-02-11T17:47:36.793Z,102706.50
2023-02-11T17:50:06.696Z,102714.56
2023-02-11T17:52:35.049Z,102716.50
2023-02-11T17:55:06.553Z,102704.56
2023-02-11T17:57:36.600Z,102717.53
2023-02-11T18:00:05.797Z,102710.63
2023-02-11T18:02:43.248Z,102717.91
2023-02-11T18:05:10.829Z,102714.44
2023-02-11T18:07:37.680Z,102714.91
2023-02-11T18:10:14.105Z,102712.69
2023-02-11T18:12:40.771Z,102704.00
2023-02-11T18:15:07.630Z,102698.94
2023-02-11T18:17:34.354Z,102699.06
2023-02-11T18:20:01.071Z,102701.28
2023-02-11T18:22:35.938Z,102705.69
2023-02-11T18:25:03.724Z,102711.38
2023-02-11T18:27:30.790Z,102713.31
2023-02-11T18:30:00.928Z,102714.16
2023-02-11T18:32:27.789Z,102714.53
2023-02-11T18:34:56.874Z,102706.53
2023-02-11T18:37:46.588Z,102707.91
2023-02-11T18:40:17.778Z,102702.97
2023-02-11T18:42:50.468Z,102710.63
2023-02-11T18:45:19.901Z,102709.13
2023-02-11T18:47:46.569Z,102709.91
2023-02-11T18:50:17.487Z,102707.28
2023-02-11T18:52:49.984Z,102713.06
2023-02-11T18:55:17.672Z,102715.31
2023-02-11T18:57:44.391Z,102707.25
2023-02-11T19:00:22.512Z,102705.47
2023-02-11T19:03:00.092Z,102700.72
2023-02-11T19:05:26.966Z,102707.00
2023-02-11T19:07:58.579Z,102710.06
2023-02-11T19:10:25.756Z,102709.78
2023-02-11T19:12:56.465Z,102704.09
2023-02-11T19:15:23.350Z,102709.91
2023-02-11T19:17:49.971Z,102714.53
2023-02-11T19:20:20.278Z,102707.84
2023-02-11T19:22:52.797Z,102711.28
2023-02-11T19:25:22.259Z,102719.22
2023-02-11T19:27:48.888Z,102706.53
2023-02-11T19:30:15.554Z,102708.22
2023-02-11T19:32:42.190Z,102705.88
2023-02-11T19:35:10.861Z,102704.56
2023-02-11T19:37:40.634Z,102705.78
2023-02-11T19:40:11.006Z,102706.06
2023-02-11T19:42:39.400Z,102699.69
2023-02-11T19:45:08.815Z,102703.25
2023-02-11T19:47:35.822Z,102705.84
2023-02-11T19:50:02.782Z,102704.19
2023-02-11T19:52:29.449Z,102702.94
2023-02-11T19:54:59.197Z,102705.94
2023-02-11T19:57:28.730Z,102708.31
2023-02-11T19:59:55.409Z,102711.78
2023-02-11T20:02:25.240Z,102709.09
2023-02-11T20:04:51.876Z,102718.84
2023-02-11T20:07:18.516Z,102716.41
2023-02-11T20:09:45.337Z,102715.09
2023-02-11T20:12:12.136Z,102710.25
2023-02-11T20:14:47.748Z,102713.91
2023-02-11T20:17:17.682Z,102704.16
2023-02-11T20:19:44.291Z,102717.53
2023-02-11T20:22:10.954Z,102716.84
2023-02-11T20:24:37.609Z,102714.63
2023-02-11T20:27:04.353Z,102713.00
2023-02-11T20:29:30.981Z,102720.44
2023-02-11T20:31:57.826Z,102724.44
2023-02-11T20:34:24.613Z,102720.84
2023-02-11T20:36:53.119Z,102713.16
2023-02-11T20:39:22.062Z,102715.91
2023-02-11T20:41:50.108Z,102713.31
2023-02-11T20:44:20.667Z,102717.31
2023-02-11T20:46:47.937Z,102715.63
2023-02-11T20:49:18.940Z,102716.97
2023-02-11T20:51:53.732Z,102711.63
2023-02-11T20:54:36.729Z,102702.34
2023-02-11T20:57:03.598Z,102710.38
2023-02-11T20:59:31.070Z,102707.59
2023-02-11T21:01:58.191Z,102699.94
2023-02-11T21:04:30.787Z,102708.19
2023-02-11T21:07:00.216Z,102704.81
2023-02-11T21:09:30.052Z,102697.31
2023-02-11T21:12:05.248Z,102702.22
2023-02-11T21:14:40.369Z,102696.41
2023-02-11T21:17:07.432Z,102697.69
2023-02-11T21:19:34.112Z,102687.56
2023-02-11T21:22:01.289Z,102689.88
2023-02-11T21:24:31.844Z,102695.69
2023-02-11T21:26:59.630Z,102688.91
2023-02-11T21:29:29.929Z,102696.59
2023-02-11T21:32:02.167Z,102693.81
2023-02-11T21:34:36.858Z,102690.16
2023-02-11T21:37:07.622Z,102698.19
2023-02-11T21:39:34.329Z,102695.16
2023-02-11T21:42:30.061Z,102686.56
2023-02-11T21:44:57.488Z,102692.91
2023-02-11T21:47:31.595Z,102702.81
2023-02-11T21:50:01.249Z,102700.16
2023-02-11T21:52:31.344Z,102698.88
2023-02-11T21:54:57.977Z,102706.28
2023-02-11T21:57:25.027Z,102707.22
2023-02-11T21:59:54.857Z,102703.88
2023-02-11T22:02:23.527Z,102710.84
2023-02-11T22:04:52.840Z,102709.91
2023-02-11T22:07:25.886Z,102716.06
2023-02-11T22:10:00.724Z,102706.97
2023-02-11T22:12:36.828Z,102715.00
2023-02-11T22:15:03.664Z,102715.63
2023-02-11T22:17:30.639Z,102707.94
2023-02-11T22:20:13.744Z,102709.38
2023-02-11T22:22:53.217Z,102709.91
2023-02-11T22:25:29.622Z,102706.69
2023-02-11T22:27:57.257Z,102695.19
2023-02-11T22:30:25.264Z,102695.19
2023-02-11T22:32:51.969Z,102699.97
2023-02-11T22:35:18.656Z,102699.03
2023-02-11T22:37:45.480Z,102702.63
2023-02-11T22:40:12.973Z,102708.78
2023-02-11T22:42:48.155Z,102695.63
2023-02-11T22:45:14.859Z,102693.94
2023-02-11T22:47:47.725Z,102698.63
2023-02-11T22:50:14.444Z,102695.25
2023-02-11T22:52:44.514Z,102688.13
2023-02-11T22:55:22.094Z,102689.63
2023-02-11T22:57:53.253Z,102694.78
2023-02-11T23:00:30.903Z,102693.00
2023-02-11T23:03:00.237Z,102693.34
2023-02-11T23:05:29.748Z,102684.56
2023-02-11T23:07:59.615Z,102687.72
2023-02-11T23:10:31.907Z,102690.91
2023-02-11T23:13:03.688Z,102683.16
2023-02-11T23:15:33.927Z,102683.56
2023-02-11T23:18:00.807Z,102680.38
2023-02-11T23:20:27.615Z,102680.69
2023-02-11T23:23:11.690Z,102677.44
2023-02-11T23:25:47.509Z,102670.44
2023-02-11T23:28:16.936Z,102681.81
2023-02-11T23:30:54.903Z,102686.44
2023-02-11T23:33:22.218Z,102687.72
2023-02-11T23:35:52.194Z,102681.94
2023-02-11T23:38:34.888Z,102680.88
2023-02-11T23:41:07.748Z,102679.97
2023-02-11T23:43:40.195Z,102673.28
2023-02-11T23:46:10.117Z,102670.09
2023-02-11T23:48:45.852Z,102668.91
2023-02-11T23:51:12.833Z,102661.84
2023-02-11T23:53:45.367Z,102666.41
2023-02-11T23:56:22.885Z,102670.50
2023-02-11T23:58:56.312Z,102667.25
